createdAt,value
2023-03-20T00:01:56.191Z,96971.06
2023-03-20T00:04:22.985Z,96977.69
2023-03-20T00:06:49.425Z,96980.31
2023-03-20T00:09:15.823Z,96978.41
2023-03-20T00:11:51.103Z,96988.66
2023-03-20T00:14:20.540Z,96990.00
2023-03-20T00:16:49.044Z,96991.13
2023-03-20T00:19:24.432Z,96989.84
2023-03-20T00:21:52.101Z,96990.66
2023-03-20T00:24:18.922Z,96985.25
2023-03-20T00:26:47.010Z,96983.28
2023-03-20T00:29:24.224Z,96989.84
2023-03-20T00:31:51.335Z,96987.88
2023-03-20T00:34:19.885Z,96986.41
2023-03-20T00:36:47.150Z,96987.88
2023-03-20T00:39:13.693Z,96982.19
2023-03-20T00:41:49.057Z,96984.34
2023-03-20T00:44:20.630Z,96980.03
2023-03-20T00:46:51.987Z,96988.66
2023-03-20T00:49:24.626Z,96989.78
2023-03-20T00:51:51.029Z,96979.94
2023-03-20T00:54:17.796Z,96982.06
2023-03-20T00:57:06.662Z,96982.22
2023-03-20T00:59:43.277Z,96979.63
2023-03-20T01:02:14.790Z,96973.88
2023-03-20T01:04:42.529Z,96977.47
2023-03-20T01:07:14.502Z,96983.50
2023-03-20T01:09:41.658Z,96984.75
2023-03-20T01:12:10.580Z,96975.63
2023-03-20T01:14:37.040Z,96976.19
2023-03-20T01:17:03.879Z,96975.97
2023-03-20T01:19:30.405Z,96971.09
2023-03-20T01:21:56.821Z,96966.38
2023-03-20T01:24:23.244Z,96965.25
2023-03-20T01:26:51.737Z,96967.09
2023-03-20T01:29:19.872Z,96979.81
2023-03-20T01:31:47.132Z,96969.97
2023-03-20T01:34:13.692Z,96976.34
2023-03-20T01:36:40.455Z,96974.16
2023-03-20T01:39:06.903Z,96969.06
2023-03-20T01:41:33.418Z,96976.91
2023-03-20T01:44:17.002Z,96979.66
2023-03-20T01:46:43.845Z,96984.97
2023-03-20T01:49:19.447Z,96983.97
2023-03-20T01:51:47.236Z,96982.94
2023-03-20T01:54:37.623Z,96976.22
2023-03-20T01:57:12.495Z,96981.00
2023-03-20T01:59:47.481Z,96970.53
2023-03-20T02:02:21.470Z,96976.41
2023-03-20T02:04:53.131Z,96974.50
2023-03-20T02:07:23.299Z,96975.00
2023-03-20T02:09:50.856Z,96982.28
2023-03-20T02:12:18.340Z,96981.75
2023-03-20T02:14:46.935Z,96985.88
2023-03-20T02:17:14.164Z,96986.66
2023-03-20T02:19:52.913Z,96987.34
2023-03-20T02:22:33.198Z,96978.81
2023-03-20T02:25:27.560Z,96982.06
2023-03-20T02:28:12.550Z,96983.69
2023-03-20T02:30:56.926Z,96989.91
2023-03-20T02:34:22.420Z,96990.88
2023-03-20T02:37:07.624Z,96989.44
2023-03-20T02:39:40.297Z,96991.53
2023-03-20T02:42:11.044Z,96999.75
2023-03-20T02:44:58.861Z,97002.38
2023-03-20T02:47:49.983Z,97003.34
2023-03-20T02:50:31.975Z,96994.44
2023-03-20T02:53:06.681Z,97002.97
2023-03-20T02:55:44.059Z,96998.25
2023-03-20T02:58:26.646Z,97002.69
2023-03-20T03:01:03.591Z,96997.75
2023-03-20T03:03:38.282Z,96994.91
2023-03-20T03:06:18.875Z,97003.88
2023-03-20T03:08:52.611Z,97006.41
2023-03-20T03:11:19.064Z,97008.06
2023-03-20T03:13:52.105Z,97006.78
2023-03-20T03:16:24.315Z,97011.88
2023-03-20T03:19:01.700Z,97011.66
2023-03-20T03:21:30.393Z,97012.69
2023-03-20T03:23:56.852Z,97004.25
2023-03-20T03:26:31.463Z,97002.78
2023-03-20T03:29:03.860Z,96999.09
2023-03-20T03:31:32.717Z,97004.25
2023-03-20T03:34:01.385Z,96996.69
2023-03-20T03:36:41.381Z,97012.38
2023-03-20T03:39:27.943Z,97004.78
2023-03-20T03:42:11.501Z,97003.72
2023-03-20T03:44:59.645Z,97005.59
2023-03-20T03:47:35.487Z,97017.25
2023-03-20T03:50:14.400Z,97009.25
2023-03-20T03:52:43.481Z,97002.16
2023-03-20T03:55:24.377Z,97005.00
2023-03-20T03:57:58.155Z,97016.59
2023-03-20T04:00:27.343Z,97010.38
2023-03-20T04:02:56.415Z,97019.78
2023-03-20T04:05:25.297Z,97007.16
2023-03-20T04:07:56.540Z,97011.13
2023-03-20T04:10:23.006Z,97008.81
2023-03-20T04:12:49.664Z,97012.25
2023-03-20T04:15:16.989Z,97015.22
2023-03-20T04:17:44.557Z,97013.66
2023-03-20T04:20:12.475Z,97012.03
2023-03-20T04:22:39.193Z,97019.13
2023-03-20T04:25:07.897Z,97013.88
2023-03-20T04:27:34.324Z,97015.53
2023-03-20T04:30:00.738Z,97012.63
2023-03-20T04:32:27.224Z,97023.16
2023-03-20T04:34:53.665Z,97020.19
2023-03-20T04:37:20.221Z,97020.97
2023-03-20T04:39:47.633Z,97024.72
2023-03-20T04:42:15.676Z,97015.22
2023-03-20T04:44:42.082Z,97025.09
2023-03-20T04:47:08.567Z,97026.22
2023-03-20T04:49:35.361Z,97026.22
2023-03-20T04:52:01.915Z,97025.00
2023-03-20T04:54:28.445Z,97025.09
2023-03-20T04:56:54.881Z,97022.72
2023-03-20T04:59:21.409Z,97028.09
2023-03-20T05:01:47.953Z,97032.03
2023-03-20T05:04:14.437Z,97030.63
2023-03-20T05:06:42.054Z,97033.25
2023-03-20T05:09:08.453Z,97040.50
2023-03-20T05:11:34.873Z,97034.72
2023-03-20T05:14:05.297Z,97037.28
2023-03-20T05:16:31.737Z,97036.53
2023-03-20T05:18:58.168Z,97035.13
2023-03-20T05:21:25.822Z,97035.53
2023-03-20T05:23:52.344Z,97041.75
2023-03-20T05:26:18.782Z,97049.31
2023-03-20T05:28:45.272Z,97050.09
2023-03-20T05:31:11.976Z,97059.75
2023-03-20T05:33:38.850Z,97053.41
2023-03-20T05:36:06.280Z,97058.31
2023-03-20T05:38:32.864Z,97056.47
2023-03-20T05:41:01.424Z,97067.59
2023-03-20T05:43:29.145Z,97070.50
2023-03-20T05:45:56.662Z,97074.09
2023-03-20T05:48:23.899Z,97072.28
2023-03-20T05:50:50.519Z,97069.91
2023-03-20T05:53:17.063Z,97077.38
2023-03-20T05:55:44.712Z,97078.72
2023-03-20T05:58:12.081Z,97083.50
2023-03-20T06:00:39.453Z,97078.13
2023-03-20T06:03:06.988Z,97080.22
2023-03-20T06:05:34.627Z,97081.66
2023-03-20T06:08:01.708Z,97080.25
2023-03-20T06:10:30.088Z,97081.03
2023-03-20T06:12:58.136Z,97076.34
2023-03-20T06:15:24.846Z,97078.81
2023-03-20T06:17:51.307Z,97085.38
2023-03-20T06:20:17.928Z,97083.47
2023-03-20T06:22:46.061Z,97083.00
2023-03-20T06:25:13.049Z,97087.09
2023-03-20T06:27:39.809Z,97086.94
2023-03-20T06:30:06.732Z,97094.19
2023-03-20T06:32:33.232Z,97088.66
2023-03-20T06:34:59.699Z,97092.63
2023-03-20T06:37:26.170Z,97077.56
2023-03-20T06:39:52.598Z,97093.16
2023-03-20T06:42:21.263Z,97092.53
2023-03-20T06:44:47.741Z,97082.31
2023-03-20T06:47:14.536Z,97098.59
2023-03-20T06:49:41.897Z,97099.66
2023-03-20T06:52:16.495Z,97098.06
2023-03-20T06:54:43.608Z,97099.06
2023-03-20T06:57:13.935Z,97099.16
2023-03-20T06:59:41.562Z,97104.41
2023-03-20T07:02:09.881Z,97106.31
2023-03-20T07:04:37.155Z,97110.03
2023-03-20T07:07:03.687Z,97108.72
2023-03-20T07:09:30.351Z,97115.38
2023-03-20T07:11:56.751Z,97120.31
2023-03-20T07:14:23.295Z,97119.16
2023-03-20T07:16:49.772Z,97118.69
2023-03-20T07:19:16.442Z,97116.22
2023-03-20T07:21:43.756Z,97118.38
2023-03-20T07:24:10.198Z,97113.84
2023-03-20T07:26:36.785Z,97120.84
2023-03-20T07:29:03.360Z,97120.06
2023-03-20T07:31:31.171Z,97122.53
2023-03-20T07:33:58.247Z,97120.03
2023-03-20T07:36:24.902Z,97124.31
2023-03-20T07:38:51.458Z,97125.00
2023-03-20T07:41:17.956Z,97127.97
2023-03-20T07:43:44.914Z,97122.88
2023-03-20T07:46:11.528Z,97127.63
2023-03-20T07:48:38.050Z,97121.25
2023-03-20T07:51:05.097Z,97113.31
2023-03-20T07:53:31.656Z,97111.06
2023-03-20T07:55:58.142Z,97123.72
2023-03-20T07:58:24.668Z,97104.31
2023-03-20T08:00:51.072Z,97116.16
2023-03-20T08:03:17.656Z,97120.25
2023-03-20T08:05:47.125Z,97115.53
2023-03-20T08:08:14.650Z,97112.09
2023-03-20T08:10:41.441Z,97116.06
2023-03-20T08:13:07.868Z,97121.28
2023-03-20T08:15:34.796Z,97119.66
2023-03-20T08:18:01.550Z,97107.00
2023-03-20T08:20:28.897Z,97112.94
2023-03-20T08:22:55.448Z,97117.03
2023-03-20T08:25:21.911Z,97114.72
2023-03-20T08:27:49.318Z,97108.19
2023-03-20T08:30:16.088Z,97120.81
2023-03-20T08:32:42.856Z,97117.22
2023-03-20T08:35:25.727Z,97111.47
2023-03-20T08:37:56.315Z,97118.84
2023-03-20T08:40:23.014Z,97121.81
2023-03-20T08:42:49.476Z,97125.91
2023-03-20T08:45:17.019Z,97123.63
2023-03-20T08:47:43.620Z,97126.56
2023-03-20T08:50:11.120Z,97129.00
2023-03-20T08:52:37.581Z,97131.63
2023-03-20T08:55:04.225Z,97129.53
2023-03-20T08:57:31.674Z,97128.69
2023-03-20T08:59:58.076Z,97120.41
2023-03-20T09:02:24.682Z,97124.84
2023-03-20T09:04:52.672Z,97128.75
2023-03-20T09:07:19.075Z,97127.50
2023-03-20T09:09:45.672Z,97124.31
2023-03-20T09:12:12.113Z,97134.41
2023-03-20T09:14:38.594Z,97134.28
2023-03-20T09:17:05.983Z,97130.66
2023-03-20T09:19:32.560Z,97130.50
2023-03-20T09:21:59.843Z,97127.81
2023-03-20T09:24:26.963Z,97125.03
2023-03-20T09:26:53.455Z,97124.88
2023-03-20T09:29:19.915Z,97129.59
2023-03-20T09:31:46.475Z,97134.53
2023-03-20T09:34:12.901Z,97125.72
2023-03-20T09:36:39.424Z,97139.72
2023-03-20T09:39:05.818Z,97138.28
2023-03-20T09:41:48.897Z,97144.59
2023-03-20T09:44:46.992Z,97147.63
2023-03-20T09:47:25.455Z,97140.25
2023-03-20T09:50:04.157Z,97139.44
2023-03-20T09:52:34.887Z,97139.53
2023-03-20T09:55:12.328Z,97142.28
2023-03-20T09:57:45.438Z,97136.22
2023-03-20T10:00:21.112Z,97133.75
2023-03-20T10:03:01.742Z,97137.66
2023-03-20T10:05:31.430Z,97145.19
2023-03-20T10:08:03.361Z,97135.31
2023-03-20T10:10:42.469Z,97132.50
2023-03-20T10:13:32.885Z,97127.06
2023-03-20T10:16:18.241Z,97128.81
2023-03-20T10:19:19.546Z,97135.53
2023-03-20T10:21:49.423Z,97124.09
2023-03-20T10:24:33.845Z,97122.03
2023-03-20T10:27:11.295Z,97136.72
2023-03-20T10:29:52.272Z,97133.81
2023-03-20T10:32:35.013Z,97139.00
2023-03-20T10:35:17.389Z,97140.28
2023-03-20T10:38:20.994Z,97136.06
2023-03-20T10:40:47.938Z,97133.53
2023-03-20T10:43:43.314Z,97131.06
2023-03-20T10:46:20.203Z,97125.28
2023-03-20T10:48:52.348Z,97124.63
2023-03-20T10:51:22.333Z,97121.50
2023-03-20T10:53:56.510Z,97118.00
2023-03-20T10:56:47.357Z,97115.09
2023-03-20T10:59:25.378Z,97113.97
2023-03-20T11:01:52.606Z,97118.25
2023-03-20T11:04:19.478Z,97108.94
2023-03-20T11:07:07.031Z,97109.25
2023-03-20T11:09:34.268Z,97122.06
2023-03-20T11:12:02.395Z,97112.41
2023-03-20T11:14:38.910Z,97116.09
2023-03-20T11:17:06.293Z,97107.91
2023-03-20T11:19:35.719Z,97111.78
2023-03-20T11:22:24.065Z,97115.97
2023-03-20T11:25:01.672Z,97110.91
2023-03-20T11:27:31.340Z,97114.03
2023-03-20T11:30:00.236Z,97113.50
2023-03-20T11:32:47.373Z,97117.00
2023-03-20T11:35:25.685Z,97120.34
2023-03-20T11:37:54.661Z,97112.22
2023-03-20T11:40:32.340Z,97116.75
2023-03-20T11:43:01.826Z,97118.25
2023-03-20T11:45:50.654Z,97116.56
2023-03-20T11:48:26.093Z,97117.13
2023-03-20T11:51:03.530Z,97103.34
2023-03-20T11:53:35.261Z,97103.06
2023-03-20T11:56:25.280Z,97101.41
2023-03-20T11:58:57.443Z,97092.06
2023-03-20T12:01:26.099Z,97095.84
2023-03-20T12:04:02.270Z,97100.66
2023-03-20T12:06:42.693Z,97092.06
2023-03-20T12:09:44.555Z,97090.78
2023-03-20T12:12:48.669Z,97089.22
2023-03-20T12:15:37.048Z,97084.47
2023-03-20T12:18:09.424Z,97084.66
2023-03-20T12:21:07.807Z,97088.69
2023-03-20T12:24:02.300Z,97085.09
2023-03-20T12:26:36.673Z,97079.34
2023-03-20T12:29:24.717Z,97084.19
2023-03-20T12:32:02.500Z,97079.56
2023-03-20T12:34:39.801Z,97084.78
2023-03-20T12:37:10.503Z,97075.16
2023-03-20T12:39:41.501Z,97081.75
2023-03-20T12:42:32.112Z,97075.31
2023-03-20T12:45:05.972Z,97073.88
2023-03-20T12:47:47.315Z,97076.09
2023-03-20T12:50:42.873Z,97071.03
2023-03-20T12:53:37.309Z,97060.84
2023-03-20T12:56:22.403Z,97058.59
2023-03-20T12:59:16.955Z,97057.56
2023-03-20T13:01:58.317Z,97063.38
2023-03-20T13:04:50.052Z,97056.63
2023-03-20T13:07:21.858Z,97056.25
2023-03-20T13:10:16.640Z,97063.03
2023-03-20T13:13:07.812Z,97044.88
2023-03-20T13:15:59.316Z,97054.09
2023-03-20T13:18:50.843Z,97051.34
2023-03-20T13:21:27.534Z,97047.97
2023-03-20T13:24:09.957Z,97046.69
2023-03-20T13:26:41.596Z,97045.91
2023-03-20T13:29:16.566Z,97048.25
2023-03-20T13:31:53.502Z,97039.53
2023-03-20T13:34:47.939Z,97047.69
2023-03-20T13:37:39.460Z,97040.06
2023-03-20T13:40:24.433Z,97039.97
2023-03-20T13:43:21.121Z,97032.69
2023-03-20T13:45:52.076Z,97029.44
2023-03-20T13:48:36.343Z,97030.28
2023-03-20T13:51:10.858Z,97035.88
2023-03-20T13:54:15.389Z,97032.16
2023-03-20T13:57:19.579Z,97028.38
2023-03-20T14:00:18.598Z,97023.59
2023-03-20T14:03:24.623Z,97019.69
2023-03-20T14:05:52.327Z,97028.94
2023-03-20T14:08:33.434Z,97017.81
2023-03-20T14:11:25.060Z,97015.91
2023-03-20T14:13:56.389Z,97010.22
2023-03-20T14:16:22.968Z,97012.94
2023-03-20T14:19:04.708Z,97011.78
2023-03-20T14:21:31.198Z,97012.75
2023-03-20T14:24:03.115Z,97014.00
2023-03-20T14:26:34.561Z,97007.81
2023-03-20T14:29:21.069Z,97007.66
2023-03-20T14:31:52.239Z,97007.78
2023-03-20T14:34:24.755Z,96996.50
2023-03-20T14:36:59.791Z,96996.25
2023-03-20T14:39:50.605Z,96999.97
2023-03-20T14:42:32.151Z,96998.25
2023-03-20T14:45:13.837Z,97003.47
2023-03-20T14:48:02.544Z,96998.41
2023-03-20T14:50:47.030Z,96997.69
2023-03-20T14:53:16.645Z,96999.31
2023-03-20T14:55:49.124Z,96997.69
2023-03-20T14:58:43.862Z,96995.53
2023-03-20T15:01:21.648Z,96995.72
2023-03-20T15:03:52.720Z,96999.19
2023-03-20T15:06:22.122Z,96994.41
2023-03-20T15:09:10.616Z,96997.50
2023-03-20T15:11:37.677Z,96989.38
2023-03-20T15:14:09.110Z,96993.28
2023-03-20T15:16:37.415Z,96994.78
2023-03-20T15:19:17.507Z,96992.06
2023-03-20T15:21:45.299Z,96998.53
2023-03-20T15:24:23.067Z,96999.41
2023-03-20T15:26:55.757Z,96999.88
2023-03-20T15:29:23.796Z,96997.09
2023-03-20T15:32:12.775Z,96999.22
2023-03-20T15:34:41.598Z,96996.41
2023-03-20T15:37:15.052Z,97006.69
2023-03-20T15:39:45.411Z,97003.06
2023-03-20T15:42:21.813Z,96998.22
2023-03-20T15:44:50.383Z,96999.06
2023-03-20T15:47:21.218Z,97007.53
2023-03-20T15:49:56.078Z,97003.50
2023-03-20T15:52:52.685Z,97002.97
2023-03-20T15:55:23.050Z,96995.66
2023-03-20T15:57:52.714Z,96995.06
2023-03-20T16:00:32.609Z,97000.44
2023-03-20T16:03:02.190Z,96998.09
2023-03-20T16:05:30.409Z,96985.25
2023-03-20T16:07:57.244Z,96994.78
2023-03-20T16:10:36.067Z,97002.09
2023-03-20T16:13:04.333Z,97001.25
2023-03-20T16:15:32.886Z,96998.53
2023-03-20T16:18:02.425Z,96993.00
2023-03-20T16:20:37.514Z,97000.63
2023-03-20T16:23:07.442Z,97002.81
2023-03-20T16:25:38.215Z,96994.63
2023-03-20T16:28:08.817Z,97000.81
2023-03-20T16:30:36.195Z,96999.53
2023-03-20T16:33:11.213Z,96993.91
2023-03-20T16:35:44.995Z,97001.88
2023-03-20T16:38:30.736Z,97000.81
2023-03-20T16:41:33.704Z,97000.25
2023-03-20T16:44:08.713Z,96991.81
2023-03-20T16:46:35.368Z,97003.31
2023-03-20T16:49:39.495Z,96997.97
2023-03-20T16:52:14.636Z,97002.91
2023-03-20T16:54:41.141Z,97002.91
2023-03-20T16:57:17.084Z,97006.59
2023-03-20T16:59:43.743Z,97011.16
2023-03-20T17:02:32.585Z,97014.34
2023-03-20T17:05:06.299Z,97018.44
2023-03-20T17:07:32.802Z,97016.50
2023-03-20T17:09:59.763Z,97027.94
2023-03-20T17:12:31.071Z,97020.69
2023-03-20T17:14:57.540Z,97020.59
2023-03-20T17:17:25.945Z,97021.66
2023-03-20T17:19:53.117Z,97021.81
2023-03-20T17:22:25.613Z,97020.16
2023-03-20T17:24:52.573Z,97034.22
2023-03-20T17:27:21.060Z,97032.22
2023-03-20T17:29:49.673Z,97036.41
2023-03-20T17:32:19.097Z,97039.81
2023-03-20T17:34:45.838Z,97039.72
2023-03-20T17:37:22.464Z,97041.25
2023-03-20T17:39:48.969Z,97042.47
2023-03-20T17:42:21.078Z,97038.25
2023-03-20T17:44:48.215Z,97047.97
2023-03-20T17:47:20.959Z,97043.25
2023-03-20T17:49:48.752Z,97048.50
2023-03-20T17:52:18.918Z,97039.63
2023-03-20T17:54:46.403Z,97048.50
2023-03-20T17:57:18.974Z,97049.88
2023-03-20T17:59:45.522Z,97046.38
2023-03-20T18:02:12.060Z,97046.88
2023-03-20T18:04:38.830Z,97046.38
2023-03-20T18:07:07.112Z,97048.25
2023-03-20T18:09:33.691Z,97047.06
2023-03-20T18:12:00.457Z,97042.56
2023-03-20T18:14:26.994Z,97047.53
2023-03-20T18:16:53.425Z,97049.84
2023-03-20T18:19:29.481Z,97054.97
2023-03-20T18:21:57.323Z,97054.00
2023-03-20T18:24:24.182Z,97052.88
2023-03-20T18:26:52.182Z,97056.28
2023-03-20T18:29:19.664Z,97063.88
2023-03-20T18:31:48.258Z,97053.03
2023-03-20T18:34:15.223Z,97057.97
2023-03-20T18:36:42.449Z,97050.41
2023-03-20T18:39:21.605Z,97056.03
2023-03-20T18:41:48.750Z,97051.25
2023-03-20T18:44:15.729Z,97055.19
2023-03-20T18:46:42.997Z,97056.16
2023-03-20T18:49:17.350Z,97057.34
2023-03-20T18:51:44.731Z,97065.34
2023-03-20T18:54:11.511Z,97059.13
2023-03-20T18:56:38.102Z,97062.22
2023-03-20T18:59:07.798Z,97061.25
2023-03-20T19:01:36.063Z,97066.50
2023-03-20T19:04:03.242Z,97067.81
2023-03-20T19:06:32.012Z,97065.84
2023-03-20T19:08:58.649Z,97064.69
2023-03-20T19:11:25.162Z,97073.53
2023-03-20T19:13:53.452Z,97068.47
2023-03-20T19:16:28.966Z,97077.13
2023-03-20T19:18:58.932Z,97075.94
2023-03-20T19:21:28.874Z,97074.78
2023-03-20T19:24:00.558Z,97064.03
2023-03-20T19:26:28.580Z,97070.84
2023-03-20T19:28:57.863Z,97072.69
2023-03-20T19:31:25.640Z,97073.16
2023-03-20T19:33:52.681Z,97063.16
2023-03-20T19:36:34.359Z,97067.06
2023-03-20T19:39:02.606Z,97057.56
2023-03-20T19:41:29.580Z,97061.34
2023-03-20T19:43:57.487Z,97065.09
2023-03-20T19:46:39.063Z,97061.50
2023-03-20T19:49:06.715Z,97052.75
2023-03-20T19:51:33.789Z,97059.00
2023-03-20T19:54:00.659Z,97060.31
2023-03-20T19:56:28.279Z,97056.38
2023-03-20T19:58:55.020Z,97055.84
2023-03-20T20:01:24.828Z,97054.38
2023-03-20T20:03:53.475Z,97051.22
2023-03-20T20:06:22.222Z,97058.75
2023-03-20T20:08:49.914Z,97055.94
2023-03-20T20:11:18.663Z,97052.91
2023-03-20T20:14:07.232Z,97052.22
2023-03-20T20:16:33.561Z,97047.97
2023-03-20T20:19:00.440Z,97045.50
2023-03-20T20:24:15.994Z,97050.69
2023-03-20T20:26:53.362Z,97054.47
2023-03-20T20:29:21.496Z,97045.91
2023-03-20T20:31:48.027Z,97051.50
2023-03-20T20:35:14.833Z,97041.97
2023-03-20T20:39:48.123Z,97046.16
2023-03-20T20:42:14.680Z,97041.25
2023-03-20T20:44:41.339Z,97050.16
2023-03-20T20:47:09.060Z,97040.19
2023-03-20T20:49:36.110Z,97044.91
2023-03-20T20:52:02.585Z,97044.03
2023-03-20T20:54:29.242Z,97047.75
2023-03-20T20:56:56.194Z,97043.69
2023-03-20T20:59:23.001Z,97037.00
2023-03-20T21:01:50.620Z,97049.19
2023-03-20T21:04:17.289Z,97053.66
2023-03-20T21:07:08.137Z,97051.50
2023-03-20T21:09:30.604Z,97048.06
2023-03-20T21:11:57.075Z,97049.41
2023-03-20T21:14:23.646Z,97049.94
2023-03-20T21:16:50.256Z,97051.00
2023-03-20T21:19:16.892Z,97045.03
2023-03-20T21:21:43.329Z,97053.56
2023-03-20T21:24:30.605Z,97056.22
2023-03-20T21:26:59.269Z,97049.03
2023-03-20T21:29:26.049Z,97048.72
2023-03-20T21:31:53.705Z,97042.09
2023-03-20T21:34:20.670Z,97060.06
2023-03-20T21:36:49.178Z,97053.78
2023-03-20T21:39:16.507Z,97054.38
2023-03-20T21:41:43.029Z,97054.72
2023-03-20T21:44:16.662Z,97051.66
2023-03-20T21:47:19.076Z,97052.63
2023-03-20T21:56:10.350Z,97043.63
2023-03-20T22:04:31.561Z,97051.31
2023-03-20T22:26:49.098Z,97043.16
2023-03-20T22:32:16.211Z,97044.44
2023-03-20T22:40:42.133Z,97045.63
2023-03-20T22:43:39.027Z,97046.31
2023-03-20T22:45:26.804Z,97049.59
2023-03-20T22:47:55.474Z,97049.22
2023-03-20T22:50:22.096Z,97045.44
2023-03-20T22:52:49.874Z,97045.78
2023-03-20T22:55:17.593Z,97049.72
2023-03-20T22:57:56.207Z,97041.44
2023-03-20T23:00:27.111Z,97040.31
2023-03-20T23:02:57.376Z,97038.41
2023-03-20T23:05:29.913Z,97041.59
2023-03-20T23:07:56.471Z,97039.97
2023-03-20T23:10:23.811Z,97046.97
2023-03-20T23:12:50.301Z,97038.16
2023-03-20T23:15:16.888Z,97030.22
2023-03-20T23:17:43.339Z,97032.69
2023-03-20T23:20:14.897Z,97031.66
2023-03-20T23:22:43.326Z,97036.38
2023-03-20T23:25:30.743Z,97033.63
2023-03-20T23:27:58.910Z,97030.25
2023-03-20T23:30:30.916Z,97031.06
2023-03-20T23:33:06.329Z,97030.53
2023-03-20T23:35:32.958Z,97033.75
2023-03-20T23:37:59.486Z,97029.28
2023-03-20T23:40:25.974Z,97035.88
2023-03-20T23:42:52.451Z,97022.94
2023-03-20T23:45:20.801Z,97026.31
2023-03-20T23:47:49.462Z,97027.63
2023-03-20T23:50:27.717Z,97031.59
2023-03-20T23:53:09.577Z,97031.22
2023-03-20T23:55:45.269Z,97030.63
2023-03-20T23:58:12.313Z,97024.50
